Time;durP1;ratioP1;P1;durP2;ratioP2;P2;SDS_P1;SDS_P2;PMS_P1;PMS_P2;Temp;Humidity;BMP_temperature;BMP_pressure;BME280_temperature;BME280_humidity;BME280_pressure;Samples;Min_cycle;Max_cycle;Signal;HPM_P1;HPM_P2
2022/10/03 00:01:30;;;;;;;4.32;1.60;;;12.70;79.20;;;;;;5056333;28;20490;-89
2022/10/03 00:04:06;;;;;;;4.57;1.70;;;12.70;79.20;;;;;;5061613;28;20028;-89
2022/10/03 00:07:02;;;;;;;3.78;1.70;;;12.70;79.20;;;;;;5070359;28;20039;-89
2022/10/03 00:09:59;;;;;;;6.53;1.83;;;12.70;79.20;;;;;;5057778;28;20044;-90
2022/10/03 00:12:46;;;;;;;3.85;1.40;;;12.80;79.20;;;;;;5066950;28;20039;-91
2022/10/03 00:15:31;;;;;;;3.58;1.35;;;12.80;79.20;;;;;;5054265;28;20503;-91
2022/10/03 00:18:28;;;;;;;4.95;1.70;;;12.80;79.00;;;;;;5068515;28;20025;-88
2022/10/03 00:21:03;;;;;;;6.47;1.60;;;12.80;79.10;;;;;;5067646;28;20074;-88
2022/10/03 00:23:40;;;;;;;6.63;1.63;;;12.80;79.10;;;;;;5068971;28;20102;-88
2022/10/03 00:26:42;;;;;;;3.63;1.30;;;12.80;79.20;;;;;;5057300;28;20067;-93
2022/10/03 00:29:38;;;;;;;3.95;1.40;;;12.80;79.20;;;;;;5068054;28;20051;-91
2022/10/03 00:32:16;;;;;;;7.15;1.60;;;12.70;79.20;;;;;;5054667;28;20077;-90
2022/10/03 00:35:15;;;;;;;4.78;1.45;;;12.70;79.30;;;;;;5054019;28;20028;-90
2022/10/03 00:38:02;;;;;;;7.38;1.50;;;12.70;79.30;;;;;;5054051;28;20357;-90
2022/10/03 00:41:01;;;;;;;3.90;1.35;;;12.70;79.30;;;;;;5059316;28;20464;-90
2022/10/03 00:43:53;;;;;;;4.22;1.30;;;12.60;79.30;;;;;;5063367;28;20068;-91
2022/10/03 00:46:40;;;;;;;5.05;1.48;;;12.60;79.30;;;;;;5062055;28;20028;-90
2022/10/03 00:49:24;;;;;;;4.70;1.75;;;12.60;79.40;;;;;;5057789;28;20029;-92
2022/10/03 00:51:59;;;;;;;3.63;1.55;;;12.60;79.50;;;;;;5064138;28;20456;-92
2022/10/03 00:54:37;;;;;;;6.32;1.70;;;12.60;79.50;;;;;;5054378;28;20086;-92
2022/10/03 00:57:13;;;;;;;4.07;1.50;;;12.70;79.60;;;;;;5067374;28;20054;-91
2022/10/03 00:59:44;;;;;;;5.47;1.40;;;12.70;79.70;;;;;;5069653;28;20039;-91
2022/10/03 01:02:28;;;;;;;3.83;1.40;;;12.60;79.50;;;;;;5066196;28;20028;-91
2022/10/03 01:05:14;;;;;;;3.28;1.45;;;12.60;79.50;;;;;;5057139;28;20083;-91
2022/10/03 01:08:04;;;;;;;5.20;1.50;;;12.50;79.60;;;;;;5058282;28;20475;-91
2022/10/03 01:10:52;;;;;;;4.28;1.30;;;12.50;79.70;;;;;;5058212;28;20064;-91
2022/10/03 01:13:32;;;;;;;4.32;1.40;;;12.50;79.60;;;;;;5067798;28;20020;-92
2022/10/03 01:16:20;;;;;;;5.50;1.60;;;12.50;79.60;;;;;;5060070;28;20054;-89
2022/10/03 01:18:55;;;;;;;4.97;1.60;;;12.40;79.50;;;;;;5066760;28;20085;-89
2022/10/03 01:21:46;;;;;;;3.63;1.50;;;12.40;79.60;;;;;;5066105;28;20032;-89
2022/10/03 01:24:30;;;;;;;2.88;1.40;;;12.40;79.50;;;;;;5054352;28;20024;-89
2022/10/03 01:27:03;;;;;;;4.50;1.60;;;12.30;79.50;;;;;;5057306;28;20078;-90
2022/10/03 01:30:21;;;;;;;2.78;1.30;;;12.30;79.50;;;;;;5075409;28;20044;-90
2022/10/03 01:33:09;;;;;;;3.60;1.17;;;12.30;79.60;;;;;;5070965;28;20028;-90
2022/10/03 01:35:58;;;;;;;4.93;1.38;;;12.20;79.70;;;;;;5070304;28;20021;-90
2022/10/03 01:38:35;;;;;;;4.53;1.40;;;12.20;79.80;;;;;;5068168;28;20035;-91
2022/10/03 01:41:12;;;;;;;4.40;1.45;;;12.20;80.00;;;;;;5070998;28;20475;-92
2022/10/03 01:43:48;;;;;;;6.15;1.70;;;12.20;80.00;;;;;;5069145;28;20131;-88
2022/10/03 01:46:20;;;;;;;4.47;1.50;;;12.20;79.90;;;;;;5071131;28;20052;-90
2022/10/03 01:48:48;;;;;;;4.43;1.30;;;12.20;79.80;;;;;;5070010;28;20035;-90
2022/10/03 01:51:33;;;;;;;3.17;1.25;;;12.20;79.90;;;;;;5069880;28;20073;-91
2022/10/03 01:54:17;;;;;;;3.95;1.42;;;12.20;79.90;;;;;;5072393;28;20027;-92
2022/10/03 01:56:57;;;;;;;5.20;1.33;;;12.20;79.90;;;;;;5065642;28;20036;-93
2022/10/03 01:59:34;;;;;;;5.55;1.50;;;12.20;79.80;;;;;;5068090;28;20096;-93
2022/10/03 02:02:20;;;;;;;4.28;1.30;;;12.20;79.80;;;;;;5067112;28;20059;-93
2022/10/03 02:05:11;;;;;;;6.65;1.58;;;12.20;79.70;;;;;;5064974;28;20031;-92
2022/10/03 02:07:49;;;;;;;3.53;1.40;;;12.10;79.80;;;;;;5053911;28;20280;-91
2022/10/03 02:10:52;;;;;;;4.30;1.60;;;12.10;79.90;;;;;;5058694;28;20118;-91
2022/10/03 02:13:27;;;;;;;3.50;1.23;;;12.10;79.90;;;;;;5066354;28;20052;-90
2022/10/03 02:16:08;;;;;;;5.95;1.30;;;12.10;79.90;;;;;;5054653;28;20020;-90
2022/10/03 02:18:54;;;;;;;4.07;1.38;;;12.00;79.90;;;;;;5052799;28;20043;-91
2022/10/03 02:21:33;;;;;;;5.45;1.48;;;12.00;79.90;;;;;;5061505;28;20239;-92
2022/10/03 02:24:13;;;;;;;3.72;1.17;;;12.00;79.90;;;;;;5057240;28;20040;-92
2022/10/03 02:27:10;;;;;;;3.83;1.20;;;11.90;79.90;;;;;;5063158;28;20020;-92
2022/10/03 02:30:02;;;;;;;3.50;1.50;;;11.90;79.90;;;;;;5058454;28;20041;-92
2022/10/03 02:33:22;;;;;;;5.50;1.30;;;11.90;80.00;;;;;;5060124;28;20301;-92
2022/10/03 02:36:18;;;;;;;5.03;1.45;;;11.80;80.00;;;;;;5067946;28;20037;-92
2022/10/03 02:38:47;;;;;;;5.40;1.38;;;11.80;80.10;;;;;;5089026;28;20024;-93
2022/10/03 02:41:31;;;;;;;6.82;1.33;;;11.80;80.00;;;;;;5076527;28;20091;-90
2022/10/03 02:44:27;;;;;;;3.90;1.30;;;11.90;80.10;;;;;;5055944;28;20052;-92
2022/10/03 02:47:26;;;;;;;5.65;1.98;;;11.80;80.10;;;;;;5061922;28;20028;-91
2022/10/03 02:50:36;;;;;;;5.38;1.30;;;11.80;80.00;;;;;;5059124;28;20044;-91
2022/10/03 02:53:20;;;;;;;4.72;1.42;;;11.80;79.90;;;;;;5063762;28;20552;-90
2022/10/03 02:56:07;;;;;;;2.55;1.25;;;11.70;79.90;;;;;;5070119;28;20086;-91
2022/10/03 02:59:00;;;;;;;4.72;1.38;;;11.70;79.90;;;;;;5065621;28;20025;-92
2022/10/03 03:01:43;;;;;;;3.35;1.45;;;11.60;80.00;;;;;;5063392;28;20036;-91
2022/10/03 03:04:30;;;;;;;3.92;1.50;;;11.60;80.00;;;;;;5057133;28;20020;-90
2022/10/03 03:07:28;;;;;;;3.20;1.30;;;11.60;79.90;;;;;;5054449;28;20463;-90
2022/10/03 03:09:59;;;;;;;4.10;1.45;;;11.50;79.90;;;;;;5065878;28;20071;-90
2022/10/03 03:12:54;;;;;;;3.70;1.30;;;11.50;80.10;;;;;;5061511;28;20056;-91
2022/10/03 03:15:45;;;;;;;3.53;1.40;;;11.50;80.20;;;;;;5051870;28;20025;-91
2022/10/03 03:18:29;;;;;;;3.90;1.77;;;11.40;80.20;;;;;;5061428;28;20020;-92
2022/10/03 03:21:02;;;;;;;4.45;1.30;;;11.40;80.10;;;;;;5069563;28;20127;-92
2022/10/03 03:23:40;;;;;;;3.42;1.20;;;11.40;80.30;;;;;;5063587;28;20056;-91
2022/10/03 03:26:27;;;;;;;4.53;1.50;;;11.30;80.30;;;;;;5059180;28;20108;-91
2022/10/03 03:29:09;;;;;;;3.55;1.27;;;11.30;80.30;;;;;;5058609;28;20492;-90
2022/10/03 03:31:43;;;;;;;4.55;1.60;;;11.30;80.30;;;;;;5068664;28;20093;-91
2022/10/03 03:34:15;;;;;;;4.53;1.20;;;11.20;80.20;;;;;;5070606;28;20031;-91
2022/10/03 03:36:50;;;;;;;5.10;1.38;;;11.20;80.10;;;;;;5073160;28;20071;-91
2022/10/03 03:39:53;;;;;;;4.03;1.33;;;11.20;80.20;;;;;;5072295;28;20082;-92
2022/10/03 03:42:41;;;;;;;4.80;1.60;;;11.20;80.20;;;;;;5072725;28;20032;-90
2022/10/03 03:45:24;;;;;;;4.30;1.40;;;11.20;80.10;;;;;;5073743;28;20539;-90
2022/10/03 03:48:04;;;;;;;4.13;1.25;;;11.20;80.20;;;;;;5078778;28;20056;-90
2022/10/03 03:50:52;;;;;;;3.53;1.13;;;11.10;80.10;;;;;;5078875;28;20028;-90
2022/10/03 03:53:45;;;;;;;5.00;1.38;;;11.10;80.30;;;;;;5073585;28;20043;-90
2022/10/03 03:56:39;;;;;;;3.80;1.45;;;11.00;80.20;;;;;;5061627;28;20461;-88
2022/10/03 03:59:43;;;;;;;3.85;1.40;;;11.00;80.30;;;;;;5055297;28;20467;-89
2022/10/03 04:02:15;;;;;;;2.75;1.40;;;11.00;80.20;;;;;;5071171;28;20415;-89
2022/10/03 04:05:14;;;;;;;4.03;1.38;;;11.00;80.30;;;;;;5061939;28;20021;-90
2022/10/03 04:07:49;;;;;;;4.10;1.40;;;11.00;80.10;;;;;;5063882;28;20032;-87
2022/10/03 04:10:37;;;;;;;3.75;1.35;;;11.00;80.20;;;;;;5054644;28;20041;-88
2022/10/03 04:13:28;;;;;;;3.17;1.20;;;11.00;80.20;;;;;;5061965;28;20108;-89
2022/10/03 04:16:12;;;;;;;3.97;1.38;;;11.00;80.20;;;;;;5063519;28;20120;-89
2022/10/03 04:18:58;;;;;;;3.08;1.33;;;11.00;80.10;;;;;;5065026;28;20066;-92
2022/10/03 04:21:42;;;;;;;5.65;1.20;;;10.90;80.00;;;;;;5057307;28;20025;-90
2022/10/03 04:24:32;;;;;;;2.83;1.48;;;10.90;80.10;;;;;;5061921;28;20032;-91
2022/10/03 04:27:16;;;;;;;2.60;1.10;;;10.90;80.20;;;;;;5068123;28;20070;-89
2022/10/03 04:29:46;;;;;;;1.92;1.20;;;10.90;80.30;;;;;;5057166;28;20039;-90
2022/10/03 04:32:33;;;;;;;3.00;1.10;;;10.80;80.30;;;;;;5062640;28;20025;-89
2022/10/03 04:35:31;;;;;;;2.40;1.20;;;10.80;80.30;;;;;;5063591;28;20017;-89
2022/10/03 04:38:20;;;;;;;5.05;1.40;;;10.80;80.40;;;;;;5068111;28;20036;-89
2022/10/03 04:41:03;;;;;;;3.03;1.10;;;10.70;80.30;;;;;;5064841;28;20039;-88
2022/10/03 04:43:53;;;;;;;4.75;1.42;;;10.80;80.40;;;;;;5058121;28;20021;-89
2022/10/03 04:46:53;;;;;;;3.55;1.15;;;10.70;80.40;;;;;;5082382;28;20035;-89
2022/10/03 04:49:25;;;;;;;3.42;1.40;;;10.70;80.40;;;;;;5065495;28;20071;-91
2022/10/03 04:52:12;;;;;;;3.60;1.20;;;10.70;80.40;;;;;;5068843;28;20028;-91
2022/10/03 04:54:43;;;;;;;4.20;1.30;;;10.70;80.40;;;;;;5067102;28;20028;-91
2022/10/03 04:57:29;;;;;;;3.83;1.50;;;10.70;80.30;;;;;;5062910;28;20074;-91
2022/10/03 05:00:28;;;;;;;4.15;1.30;;;10.70;80.20;;;;;;5064567;28;20135;-91
2022/10/03 05:03:20;;;;;;;3.83;1.48;;;10.70;80.20;;;;;;5063110;28;20033;-90
2022/10/03 05:06:14;;;;;;;3.40;1.30;;;10.70;80.20;;;;;;5062625;28;20129;-90
2022/10/03 05:09:01;;;;;;;3.10;1.50;;;10.70;80.40;;;;;;5058224;28;20032;-88
2022/10/03 05:11:54;;;;;;;3.17;1.40;;;10.70;80.40;;;;;;5056811;28;20025;-90
2022/10/03 05:14:19;;;;;;;;;;;10.60;80.30;;;;;;5063643;28;20036;-88
2022/10/03 05:16:51;;;;;;;3.53;1.30;;;10.70;80.30;;;;;;5059137;28;19916;-89
2022/10/03 05:19:26;;;;;;;3.70;1.40;;;10.70;80.40;;;;;;5054165;28;20080;-90
2022/10/03 05:22:00;;;;;;;4.18;1.25;;;10.70;80.40;;;;;;5061730;28;20905;-89
2022/10/03 05:24:43;;;;;;;3.90;1.63;;;10.60;80.30;;;;;;5059429;28;20514;-89
2022/10/03 05:27:35;;;;;;;3.83;1.30;;;10.60;80.40;;;;;;5062445;28;20017;-88
2022/10/03 05:30:42;;;;;;;3.03;1.15;;;10.60;80.40;;;;;;5064228;28;20035;-91
2022/10/03 05:33:38;;;;;;;2.97;1.50;;;10.50;80.50;;;;;;5065961;28;20067;-90
2022/10/03 05:36:14;;;;;;;2.72;1.30;;;10.50;80.60;;;;;;5067149;28;20475;-85
2022/10/03 05:38:58;;;;;;;3.72;1.25;;;10.50;80.50;;;;;;5070354;28;20425;-90
2022/10/03 05:41:50;;;;;;;2.97;1.30;;;10.50;80.50;;;;;;5076067;28;20036;-88
2022/10/03 05:44:39;;;;;;;2.17;1.20;;;10.50;80.30;;;;;;5069238;28;20086;-88
2022/10/03 05:47:46;;;;;;;3.08;1.13;;;10.50;80.60;;;;;;5068370;28;20020;-88
2022/10/03 05:50:30;;;;;;;4.03;1.42;;;10.50;80.60;;;;;;5069146;28;20052;-89
2022/10/03 05:53:24;;;;;;;2.38;1.30;;;10.50;80.60;;;;;;5069361;28;20502;-87
2022/10/03 05:56:15;;;;;;;4.75;1.27;;;10.50;80.30;;;;;;5073849;28;20029;-90
2022/10/03 05:59:12;;;;;;;2.80;1.30;;;10.40;80.40;;;;;;5071178;28;20029;-89
2022/10/03 06:01:50;;;;;;;2.72;1.30;;;10.40;80.50;;;;;;5067900;28;20090;-88
2022/10/03 06:04:34;;;;;;;3.53;1.30;;;10.50;80.50;;;;;;5066651;28;20391;-89
2022/10/03 06:07:24;;;;;;;4.50;1.25;;;10.50;80.50;;;;;;5069065;28;20067;-88
2022/10/03 06:10:24;;;;;;;3.85;1.63;;;10.50;80.50;;;;;;5067381;28;20527;-87
2022/10/03 06:13:14;;;;;;;4.40;1.50;;;10.60;80.30;;;;;;5066718;28;20502;-88
2022/10/03 06:16:21;;;;;;;2.50;1.33;;;10.60;80.20;;;;;;5069686;28;20021;-88
2022/10/03 06:19:05;;;;;;;2.97;1.40;;;10.60;80.30;;;;;;5062204;28;20028;-88
2022/10/03 06:22:05;;;;;;;3.80;1.70;;;10.60;80.10;;;;;;5068455;28;20337;-88
2022/10/03 06:25:08;;;;;;;2.60;1.30;;;10.70;80.20;;;;;;5057093;28;20025;-88
2022/10/03 06:27:58;;;;;;;4.05;1.50;;;10.70;80.10;;;;;;5068627;28;20386;-88
2022/10/03 06:30:51;;;;;;;1.98;1.20;;;10.80;80.00;;;;;;5069380;28;20040;-88
2022/10/03 06:33:54;;;;;;;2.30;1.33;;;10.80;80.00;;;;;;5067393;28;20127;-88
2022/10/03 06:36:25;;;;;;;3.28;1.20;;;10.80;80.20;;;;;;5067893;28;20054;-88
2022/10/03 06:39:09;;;;;;;3.58;1.50;;;10.80;80.20;;;;;;5060766;28;20614;-91
2022/10/03 06:42:09;;;;;;;4.03;1.58;;;10.90;80.30;;;;;;5070700;28;20119;-88
2022/10/03 06:44:56;;;;;;;3.83;1.58;;;11.00;80.40;;;;;;5067610;28;20028;-86
2022/10/03 06:47:37;;;;;;;3.03;1.55;;;11.10;80.30;;;;;;5066854;28;20530;-87
2022/10/03 06:50:18;;;;;;;3.17;1.52;;;11.20;80.10;;;;;;5073969;28;20034;-88
2022/10/03 06:53:11;;;;;;;3.28;1.45;;;11.30;80.10;;;;;;5066630;28;20119;-87
2022/10/03 06:56:15;;;;;;;3.30;1.60;;;11.40;80.00;;;;;;5067142;28;20033;-89
2022/10/03 06:59:08;;;;;;;3.80;1.70;;;11.60;79.90;;;;;;5067165;28;20538;-88
2022/10/03 07:01:51;;;;;;;3.92;1.90;;;11.70;79.90;;;;;;5065283;28;20055;-88
2022/10/03 07:04:26;;;;;;;4.05;2.00;;;11.80;79.80;;;;;;5070028;28;20459;-88
2022/10/03 07:07:15;;;;;;;4.65;1.50;;;11.90;79.70;;;;;;5065547;28;20024;-92
2022/10/03 07:10:02;;;;;;;3.00;1.70;;;12.10;79.60;;;;;;5070324;28;20047;-91
2022/10/03 07:12:32;;;;;;;5.18;1.92;;;12.20;79.50;;;;;;5071719;28;20020;-88
2022/10/03 07:15:04;;;;;;;5.40;1.92;;;12.30;79.30;;;;;;5073762;28;20450;-88
2022/10/03 07:17:55;;;;;;;3.85;1.90;;;12.30;79.40;;;;;;5030596;22;20056;-67
2022/10/03 07:20:43;;;;;;;3.75;1.70;;;12.50;79.50;;;;;;4998868;28;20045;-65
2022/10/03 07:23:39;;;;;;;5.03;2.20;;;12.60;79.50;;;;;;5004285;28;20504;-66
2022/10/03 07:26:38;;;;;;;3.65;2.20;;;12.70;79.30;;;;;;5009576;28;20040;-66
2022/10/03 07:29:15;;;;;;;5.82;2.40;;;12.80;79.20;;;;;;5009354;28;20099;-66
2022/10/03 07:32:20;;;;;;;3.83;2.05;;;12.80;79.10;;;;;;5011203;28;20140;-66
2022/10/03 07:35:05;;;;;;;4.85;1.83;;;12.90;79.20;;;;;;5001513;28;20057;-66
2022/10/03 07:41:13;;;;;;;4.47;1.70;;;13.20;79.20;;;;;;5007986;28;20404;-67
2022/10/03 07:43:59;;;;;;;3.13;1.40;;;13.40;79.10;;;;;;5014575;28;20041;-66
2022/10/03 07:46:47;;;;;;;3.22;1.40;;;13.50;79.00;;;;;;5013233;28;20109;-66
2022/10/03 07:49:43;;;;;;;4.68;1.48;;;13.60;79.00;;;;;;5007231;28;20030;-66
2022/10/03 07:52:38;;;;;;;3.45;1.30;;;13.70;78.90;;;;;;5012190;28;20176;-66
2022/10/03 07:55:37;;;;;;;6.00;1.27;;;13.90;78.80;;;;;;5007198;28;20488;-66
2022/10/03 07:58:27;;;;;;;4.05;1.30;;;13.90;78.60;;;;;;4996516;28;20101;-67
2022/10/03 08:01:10;;;;;;;3.10;1.10;;;14.00;78.50;;;;;;4997715;28;20093;-67
2022/10/03 08:04:13;;;;;;;3.50;1.20;;;14.10;78.30;;;;;;5014727;28;20022;-67
2022/10/03 08:07:05;;;;;;;3.05;0.90;;;14.30;78.40;;;;;;5003039;28;20084;-67
2022/10/03 08:10:04;;;;;;;5.80;1.80;;;14.40;78.20;;;;;;5008734;28;20042;-67
2022/10/03 08:12:53;;;;;;;6.28;2.03;;;14.50;78.20;;;;;;5009507;28;20459;-67
2022/10/03 08:15:54;;;;;;;4.57;1.60;;;14.60;77.90;;;;;;5008052;28;20022;-67
2022/10/03 08:18:38;;;;;;;3.70;1.20;;;14.70;77.50;;;;;;5001052;28;20034;-68
2022/10/03 08:21:14;;;;;;;6.85;1.33;;;14.80;77.40;;;;;;5010932;28;20032;-67
2022/10/03 08:23:55;;;;;;;3.90;1.35;;;14.80;77.30;;;;;;5011517;28;20034;-67
2022/10/03 08:26:27;;;;;;;4.47;1.63;;;14.90;77.20;;;;;;4997464;28;20061;-66
2022/10/03 08:28:58;;;;;;;3.85;1.30;;;15.00;77.10;;;;;;5007202;28;20030;-67
2022/10/03 08:31:42;;;;;;;3.20;1.10;;;15.10;77.00;;;;;;5010981;28;20029;-67
2022/10/03 08:34:27;;;;;;;3.05;1.10;;;15.10;76.90;;;;;;5006898;28;20026;-67
2022/10/03 08:37:23;;;;;;;4.47;1.45;;;15.20;76.80;;;;;;5003436;28;20018;-68
2022/10/03 08:40:26;;;;;;;2.13;0.98;;;15.30;76.70;;;;;;5006329;28;20292;-67
2022/10/03 08:43:46;;;;;;;2.47;1.10;;;15.40;76.70;;;;;;5002640;28;20034;-67
2022/10/03 08:46:38;;;;;;;3.17;1.15;;;15.40;76.50;;;;;;4969088;28;20712;-67
2022/10/03 08:49:27;;;;;;;3.00;1.00;;;15.50;76.50;;;;;;5001547;28;20156;-67
2022/10/03 08:52:02;;;;;;;3.00;1.20;;;15.60;76.40;;;;;;5007973;28;20557;-68
2022/10/03 08:54:34;;;;;;;2.90;1.15;;;15.60;76.20;;;;;;5005960;28;20038;-68
2022/10/03 08:57:11;;;;;;;2.88;1.23;;;15.60;76.10;;;;;;5007523;28;20061;-67
2022/10/03 08:59:56;;;;;;;4.57;1.10;;;15.70;76.10;;;;;;5004232;28;20088;-68
2022/10/03 09:02:40;;;;;;;3.05;0.90;;;15.70;75.80;;;;;;5000707;28;20068;-68
2022/10/03 09:05:23;;;;;;;3.47;1.15;;;15.80;75.80;;;;;;4999931;28;20026;-69
2022/10/03 09:08:20;;;;;;;4.43;1.60;;;15.90;75.80;;;;;;5006786;28;20033;-67
2022/10/03 09:11:23;;;;;;;5.70;1.60;;;15.90;75.50;;;;;;5002426;28;20038;-68
2022/10/03 09:14:16;;;;;;;8.10;1.58;;;15.90;75.20;;;;;;5009773;28;20035;-67
2022/10/03 09:17:01;;;;;;;3.88;1.20;;;15.90;75.20;;;;;;5009746;28;20022;-68
2022/10/03 09:19:54;;;;;;;7.00;1.58;;;16.00;75.30;;;;;;5007659;28;20029;-68
2022/10/03 09:22:45;;;;;;;3.20;1.20;;;16.10;75.00;;;;;;4998841;28;20041;-68
2022/10/03 09:25:18;;;;;;;2.85;1.10;;;16.20;74.80;;;;;;5006223;28;20034;-68
2022/10/03 09:28:21;;;;;;;2.50;1.27;;;16.30;74.60;;;;;;5003782;28;20050;-67
2022/10/03 09:30:52;;;;;;;2.53;1.42;;;16.30;74.50;;;;;;5000447;28;20144;-67
2022/10/03 09:33:38;;;;;;;4.05;1.20;;;16.40;74.50;;;;;;4999079;28;20018;-68
2022/10/03 09:36:12;;;;;;;5.18;1.42;;;16.50;74.50;;;;;;5006111;28;20023;-67
2022/10/03 09:38:59;;;;;;;5.25;1.67;;;16.60;74.40;;;;;;4997314;28;20026;-67
2022/10/03 09:41:43;;;;;;;4.78;1.35;;;16.70;74.40;;;;;;4998450;28;20034;-68
2022/10/03 09:44:38;;;;;;;1.70;0.90;;;16.70;74.30;;;;;;4999658;28;20476;-68
2022/10/03 09:47:21;;;;;;;4.22;1.80;;;16.80;74.00;;;;;;4993373;28;20045;-67
2022/10/03 09:49:59;;;;;;;6.13;2.13;;;16.90;73.70;;;;;;5005799;28;20034;-67
2022/10/03 09:52:43;;;;;;;4.80;1.60;;;16.90;73.80;;;;;;5007150;28;20392;-66
2022/10/03 09:55:28;;;;;;;4.50;1.80;;;17.00;73.70;;;;;;5003215;28;20025;-67
2022/10/03 09:58:12;;;;;;;3.70;1.60;;;17.10;73.60;;;;;;5008085;28;20072;-67
2022/10/03 10:00:47;;;;;;;5.55;1.70;;;17.10;73.60;;;;;;5003012;28;20536;-66
2022/10/03 10:03:41;;;;;;;5.38;1.90;;;17.20;73.50;;;;;;4996147;28;20080;-67
2022/10/03 10:06:49;;;;;;;7.30;2.50;;;17.30;73.40;;;;;;4993895;28;20042;-66
2022/10/03 10:09:49;;;;;;;8.18;2.75;;;17.30;72.90;;;;;;5008541;28;20531;-67
2022/10/03 10:12:44;;;;;;;6.90;2.53;;;17.10;72.60;;;;;;4998196;28;20141;-67
2022/10/03 10:15:58;;;;;;;6.35;2.10;;;17.10;72.90;;;;;;5006939;28;20025;-68
2022/10/03 10:18:32;;;;;;;5.82;2.22;;;17.20;73.10;;;;;;5007628;28;20049;-67
2022/10/03 10:21:19;;;;;;;2.75;1.70;;;17.30;74.00;;;;;;5004228;28;20034;-67
2022/10/03 10:24:03;;;;;;;4.78;1.70;;;17.40;73.00;;;;;;5001432;28;20076;-67
2022/10/03 10:26:57;;;;;;;5.25;1.80;;;17.60;72.80;;;;;;5003352;28;20026;-68
2022/10/03 10:29:28;;;;;;;5.07;1.65;;;17.70;72.30;;;;;;5006748;28;20057;-67
2022/10/03 10:32:28;;;;;;;4.13;1.70;;;17.80;71.90;;;;;;5006641;28;20373;-66
2022/10/03 10:35:42;;;;;;;4.47;1.33;;;17.90;71.50;;;;;;5001879;28;20022;-67
2022/10/03 10:38:26;;;;;;;4.80;1.73;;;17.90;71.30;;;;;;4998928;28;20400;-67
2022/10/03 10:41:36;;;;;;;3.95;1.50;;;18.00;71.00;;;;;;4992746;28;20084;-68
2022/10/03 10:44:16;;;;;;;4.25;1.77;;;17.90;70.40;;;;;;5004124;28;20489;-67
2022/10/03 10:47:07;;;;;;;5.70;1.30;;;17.80;70.30;;;;;;5000764;28;20037;-68
2022/10/03 10:49:57;;;;;;;3.65;1.40;;;17.80;70.60;;;;;;5002278;28;20040;-68
2022/10/03 10:52:47;;;;;;;4.78;1.50;;;17.80;70.70;;;;;;4996168;28;20026;-67
2022/10/03 10:56:06;;;;;;;4.80;1.60;;;17.80;70.70;;;;;;5001391;28;20495;-67
2022/10/03 10:58:51;;;;;;;3.40;1.50;;;17.90;70.70;;;;;;5009850;28;20050;-67
2022/10/03 11:01:50;;;;;;;3.75;1.40;;;18.00;70.70;;;;;;5007768;28;20022;-67
2022/10/03 11:04:49;;;;;;;8.55;4.30;;;18.00;70.50;;;;;;4993134;28;20042;-68
2022/10/03 11:07:52;;;;;;;6.00;3.63;;;18.00;70.30;;;;;;4994342;28;20042;-68
2022/10/03 11:10:31;;;;;;;4.25;2.10;;;18.10;70.10;;;;;;4991312;28;20552;-67
2022/10/03 11:13:42;;;;;;;5.65;1.90;;;18.20;69.90;;;;;;4999269;28;20018;-68
2022/10/03 11:16:34;;;;;;;4.63;1.40;;;18.20;69.40;;;;;;5007815;28;20030;-68
2022/10/03 11:19:22;;;;;;;3.38;0.90;;;18.20;69.10;;;;;;5005865;28;20017;-66
2022/10/03 11:22:36;;;;;;;3.13;1.10;;;18.20;69.00;;;;;;5014000;28;20476;-68
2022/10/03 11:25:39;;;;;;;4.53;1.20;;;18.30;68.60;;;;;;5000635;28;20113;-68
2022/10/03 11:28:30;;;;;;;3.63;1.00;;;18.40;68.10;;;;;;4998518;28;20017;-65
2022/10/03 11:31:15;;;;;;;2.65;1.10;;;18.40;67.70;;;;;;5001154;28;20056;-66
2022/10/03 11:34:17;;;;;;;2.10;0.98;;;18.40;67.30;;;;;;4996385;28;20397;-66
2022/10/03 11:36:51;;;;;;;2.70;1.00;;;18.40;67.10;;;;;;5005032;28;20092;-67
2022/10/03 11:39:32;;;;;;;3.33;1.00;;;18.50;67.00;;;;;;4999713;28;20035;-67
2022/10/03 11:42:34;;;;;;;3.45;1.23;;;18.70;66.70;;;;;;4992169;28;20050;-66
2022/10/03 11:45:04;;;;;;;5.05;1.50;;;18.90;66.40;;;;;;4997872;28;20030;-66
2022/10/03 11:47:50;;;;;;;3.08;1.13;;;18.90;66.00;;;;;;5002841;28;20034;-67
2022/10/03 11:50:44;;;;;;;3.08;1.00;;;19.10;65.80;;;;;;5008530;28;20479;-66
2022/10/03 11:53:17;;;;;;;2.50;0.95;;;19.20;65.40;;;;;;4998954;28;20034;-68
2022/10/03 11:56:11;;;;;;;3.45;1.10;;;19.20;65.20;;;;;;4999606;28;20100;-68
2022/10/03 11:58:53;;;;;;;3.25;0.98;;;19.10;64.90;;;;;;4998407;28;20445;-68
2022/10/03 12:01:31;;;;;;;5.97;3.67;;;19.00;64.80;;;;;;5005179;28;20025;-68
2022/10/03 12:04:18;;;;;;;3.63;2.13;;;19.00;64.90;;;;;;5000507;28;20026;-67
2022/10/03 12:09:53;;;;;;;2.25;1.00;;;19.00;64.90;;;;;;4998105;28;20554;-66
2022/10/03 12:12:52;;;;;;;2.90;1.05;;;19.00;64.50;;;;;;5007000;28;20046;-66
2022/10/03 12:15:31;;;;;;;2.28;0.95;;;19.00;63.70;;;;;;4997406;28;20030;-67
2022/10/03 12:18:16;;;;;;;1.50;0.80;;;19.00;63.50;;;;;;5008260;28;20056;-67
2022/10/03 12:21:01;;;;;;;2.53;0.93;;;19.10;63.40;;;;;;5000271;28;20026;-68
2022/10/03 12:23:51;;;;;;;2.15;0.90;;;19.20;63.10;;;;;;5014132;28;20499;-66
2022/10/03 12:26:25;;;;;;;3.95;1.10;;;19.00;62.60;;;;;;5007945;28;20037;-67
2022/10/03 12:28:54;;;;;;;2.00;0.80;;;19.00;62.30;;;;;;5001216;28;20607;-66
2022/10/03 12:31:36;;;;;;;2.22;0.80;;;19.00;62.60;;;;;;5003018;28;20034;-67
2022/10/03 12:34:19;;;;;;;;;;;19.00;62.50;;;;;;5007022;28;20030;-67
2022/10/03 12:36:58;;;;;;;2.38;0.95;;;19.00;62.60;;;;;;4995484;28;19906;-67
2022/10/03 12:39:38;;;;;;;2.35;0.90;;;19.00;62.50;;;;;;5009954;28;20034;-66
2022/10/03 12:42:13;;;;;;;2.58;1.08;;;19.00;62.40;;;;;;5008909;28;20060;-66
2022/10/03 12:44:59;;;;;;;2.15;0.90;;;19.10;62.40;;;;;;4994118;28;20500;-66
2022/10/03 12:47:38;;;;;;;2.75;1.10;;;19.20;61.80;;;;;;5004558;28;20057;-66
2022/10/03 12:50:39;;;;;;;2.53;1.00;;;19.30;61.50;;;;;;5011220;28;20026;-67
2022/10/03 12:53:17;;;;;;;3.55;0.90;;;19.30;61.40;;;;;;5012460;28;20021;-66
2022/10/03 12:56:17;;;;;;;3.25;1.10;;;19.50;61.50;;;;;;5012384;28;20623;-68
2022/10/03 12:59:09;;;;;;;2.83;1.02;;;19.50;61.90;;;;;;5012220;28;20041;-67
2022/10/03 13:01:40;;;;;;;2.45;0.98;;;19.50;61.20;;;;;;5012127;28;20026;-67
2022/10/03 13:04:15;;;;;;;3.20;0.88;;;19.50;61.40;;;;;;5012834;28;20483;-67
2022/10/03 13:06:45;;;;;;;2.20;0.80;;;19.50;61.50;;;;;;5012283;28;20033;-66
2022/10/03 13:09:48;;;;;;;2.50;0.90;;;19.50;61.60;;;;;;5012121;28;20085;-66
2022/10/03 13:12:49;;;;;;;2.38;0.80;;;19.50;61.30;;;;;;4993768;28;20033;-66
2022/10/03 13:15:46;;;;;;;1.95;0.93;;;19.50;61.20;;;;;;5011977;28;20022;-67
2022/10/03 13:18:26;;;;;;;2.75;1.00;;;19.40;61.40;;;;;;5003603;28;20018;-67
2022/10/03 13:21:18;;;;;;;3.03;0.90;;;19.40;61.50;;;;;;4992371;28;20045;-66
2022/10/03 13:23:56;;;;;;;1.33;0.68;;;19.40;61.50;;;;;;5006778;28;20084;-67
2022/10/03 13:26:38;;;;;;;2.63;0.90;;;19.40;61.50;;;;;;4997445;28;20038;-67
2022/10/03 13:29:28;;;;;;;2.42;0.80;;;19.40;61.40;;;;;;5011609;28;20484;-66
2022/10/03 13:32:30;;;;;;;1.98;0.80;;;19.50;61.30;;;;;;5011943;28;20022;-66
2022/10/03 13:38:12;;;;;;;4.38;1.00;;;19.50;61.00;;;;;;5011211;28;20064;-67
2022/10/03 13:41:11;;;;;;;3.50;1.10;;;19.50;60.90;;;;;;5011647;28;20037;-66
2022/10/03 13:43:40;;;;;;;2.78;0.82;;;19.50;60.90;;;;;;5002812;28;20500;-66
2022/10/03 13:46:14;;;;;;;2.17;0.88;;;19.50;60.90;;;;;;5000810;28;20066;-66
2022/10/03 13:48:47;;;;;;;1.55;0.73;;;19.60;60.90;;;;;;5002816;28;20030;-66
2022/10/03 13:51:39;;;;;;;3.10;0.88;;;19.50;60.90;;;;;;5001689;28;20034;-68
2022/10/03 13:54:24;;;;;;;3.70;1.10;;;19.60;60.90;;;;;;5003628;28;20445;-67
2022/10/03 13:57:10;;;;;;;2.72;0.90;;;19.70;60.70;;;;;;4999221;28;20025;-66
2022/10/03 13:59:45;;;;;;;2.17;1.05;;;19.70;60.60;;;;;;5002339;28;20105;-68
2022/10/03 14:02:40;;;;;;;3.17;1.00;;;19.80;60.30;;;;;;5006040;28;20022;-68
2022/10/03 14:05:06;;;;;;;3.13;1.00;;;19.80;60.00;;;;;;5004361;28;20138;-67
2022/10/03 14:07:57;;;;;;;2.83;0.88;;;20.00;59.60;;;;;;5002329;28;20453;-67
2022/10/03 14:10:52;;;;;;;3.20;0.90;;;20.00;59.40;;;;;;5002684;28;20042;-67
2022/10/03 14:13:44;;;;;;;3.15;1.00;;;20.00;59.10;;;;;;5007094;28;20022;-67
2022/10/03 14:16:30;;;;;;;1.75;0.77;;;20.10;59.20;;;;;;4999839;28;20120;-67
2022/10/03 14:19:13;;;;;;;2.13;0.80;;;20.10;59.10;;;;;;5002313;28;20019;-68
2022/10/03 14:21:46;;;;;;;2.35;0.80;;;20.20;59.30;;;;;;4996786;28;20434;-68
2022/10/03 14:24:19;;;;;;;3.30;1.10;;;20.30;59.30;;;;;;5010885;28;20037;-67
2022/10/03 14:27:01;;;;;;;3.92;1.20;;;20.20;59.10;;;;;;5010632;28;20026;-68
2022/10/03 14:29:38;;;;;;;2.40;1.25;;;20.10;58.80;;;;;;5010794;28;20038;-67
2022/10/03 14:32:23;;;;;;;1.75;1.10;;;20.00;59.10;;;;;;5010153;28;20501;-68
2022/10/03 14:35:08;;;;;;;4.38;1.30;;;19.90;59.30;;;;;;5010796;28;20029;-67
2022/10/03 14:37:41;;;;;;;2.85;1.25;;;19.90;59.50;;;;;;5022134;28;20104;-67
2022/10/03 14:40:11;;;;;;;2.25;1.10;;;19.80;59.70;;;;;;5008011;28;20025;-68